sensor_id;sensor_type;location;lat;lon;timestamp;temperature;humidity
67273;DHT22;54190;49.770;9.250;2023-03-04T00:01:53;-1.10;99.90
67273;DHT22;54190;49.770;9.250;2023-03-04T00:04:19;-1.10;99.90
67273;DHT22;54190;49.770;9.250;2023-03-04T00:06:44;-1.20;99.90
67273;DHT22;54190;49.770;9.250;2023-03-04T00:09:10;-1.10;99.90
67273;DHT22;54190;49.770;9.250;2023-03-04T00:11:36;-1.10;99.90
67273;DHT22;54190;49.770;9.250;2023-03-04T00:14:01;-1.20;99.90
67273;DHT22;54190;49.770;9.250;2023-03-04T00:16:27;-1.10;99.90
67273;DHT22;54190;49.770;9.250;2023-03-04T00:18:56;-1.10;99.90
67273;DHT22;54190;49.770;9.250;2023-03-04T00:21:22;-1.10;99.90
67273;DHT22;54190;49.770;9.250;2023-03-04T00:23:48;-1.20;99.90
67273;DHT22;54190;49.770;9.250;2023-03-04T00:26:14;-1.30;99.90
67273;DHT22;54190;49.770;9.250;2023-03-04T00:28:42;-1.30;99.90
67273;DHT22;54190;49.770;9.250;2023-03-04T00:31:08;-1.30;99.90
67273;DHT22;54190;49.770;9.250;2023-03-04T00:33:34;-1.30;99.90
67273;DHT22;54190;49.770;9.250;2023-03-04T00:36:00;-1.30;99.90
67273;DHT22;54190;49.770;9.250;2023-03-04T00:38:27;-1.40;99.90
67273;DHT22;54190;49.770;9.250;2023-03-04T00:40:53;-1.50;99.90
67273;DHT22;54190;49.770;9.250;2023-03-04T00:43:19;-1.50;99.90
67273;DHT22;54190;49.770;9.250;2023-03-04T00:45:45;-1.50;99.90
67273;DHT22;54190;49.770;9.250;2023-03-04T00:48:10;-1.40;99.90
67273;DHT22;54190;49.770;9.250;2023-03-04T00:50:36;-1.50;99.90
67273;DHT22;54190;49.770;9.250;2023-03-04T00:53:02;-1.50;99.90
67273;DHT22;54190;49.770;9.250;2023-03-04T00:55:28;-1.60;99.90
67273;DHT22;54190;49.770;9.250;2023-03-04T00:57:54;-1.60;99.90
67273;DHT22;54190;49.770;9.250;2023-03-04T01:00:19;-1.60;99.90
67273;DHT22;54190;49.770;9.250;2023-03-04T01:02:45;-1.70;99.90
67273;DHT22;54190;49.770;9.250;2023-03-04T01:05:11;-1.70;99.90
67273;DHT22;54190;49.770;9.250;2023-03-04T01:07:37;-1.70;99.90
67273;DHT22;54190;49.770;9.250;2023-03-04T01:10:05;-1.80;99.90
67273;DHT22;54190;49.770;9.250;2023-03-04T01:12:31;-1.80;99.90
67273;DHT22;54190;49.770;9.250;2023-03-04T01:14:58;-1.80;99.90
67273;DHT22;54190;49.770;9.250;2023-03-04T01:17:23;-1.80;99.90
67273;DHT22;54190;49.770;9.250;2023-03-04T01:19:49;-1.80;99.90
67273;DHT22;54190;49.770;9.250;2023-03-04T01:22:15;-1.80;99.90
67273;DHT22;54190;49.770;9.250;2023-03-04T01:24:43;-1.80;99.90
67273;DHT22;54190;49.770;9.250;2023-03-04T01:27:09;-1.90;99.90
67273;DHT22;54190;49.770;9.250;2023-03-04T01:29:35;-1.90;99.90
67273;DHT22;54190;49.770;9.250;2023-03-04T01:32:01;-1.90;99.90
67273;DHT22;54190;49.770;9.250;2023-03-04T01:34:27;-1.90;99.90
67273;DHT22;54190;49.770;9.250;2023-03-04T01:36:52;-1.80;99.90
67273;DHT22;54190;49.770;9.250;2023-03-04T01:39:18;-1.80;99.90
67273;DHT22;54190;49.770;9.250;2023-03-04T01:41:44;-1.80;99.90
67273;DHT22;54190;49.770;9.250;2023-03-04T01:44:10;-1.80;99.90
67273;DHT22;54190;49.770;9.250;2023-03-04T01:46:37;-1.80;99.90
67273;DHT22;54190;49.770;9.250;2023-03-04T01:49:05;-1.80;99.90
67273;DHT22;54190;49.770;9.250;2023-03-04T01:51:31;-1.80;99.90
67273;DHT22;54190;49.770;9.250;2023-03-04T01:53:57;-1.80;99.90
67273;DHT22;54190;49.770;9.250;2023-03-04T01:56:35;-1.80;99.90
67273;DHT22;54190;49.770;9.250;2023-03-04T02:01:39;-1.90;99.90
67273;DHT22;54190;49.770;9.250;2023-03-04T02:04:05;-1.90;99.90
67273;DHT22;54190;49.770;9.250;2023-03-04T02:06:33;-1.90;99.90
67273;DHT22;54190;49.770;9.250;2023-03-04T02:08:58;-1.90;99.90
67273;DHT22;54190;49.770;9.250;2023-03-04T02:11:24;-1.90;99.90
67273;DHT22;54190;49.770;9.250;2023-03-04T02:13:51;-1.90;99.90
67273;DHT22;54190;49.770;9.250;2023-03-04T02:16:17;-1.80;99.90
67273;DHT22;54190;49.770;9.250;2023-03-04T02:18:43;-1.90;99.90
67273;DHT22;54190;49.770;9.250;2023-03-04T02:21:28;-1.80;99.90
67273;DHT22;54190;49.770;9.250;2023-03-04T02:23:56;-1.80;99.90
67273;DHT22;54190;49.770;9.250;2023-03-04T02:26:30;-1.70;99.90
67273;DHT22;54190;49.770;9.250;2023-03-04T02:28:59;-1.70;99.90
67273;DHT22;54190;49.770;9.250;2023-03-04T02:31:35;-1.60;99.90
67273;DHT22;54190;49.770;9.250;2023-03-04T02:34:04;-1.60;99.90
67273;DHT22;54190;49.770;9.250;2023-03-04T02:36:31;-1.50;99.90
67273;DHT22;54190;49.770;9.250;2023-03-04T02:39:07;-1.50;99.90
67273;DHT22;54190;49.770;9.250;2023-03-04T02:41:35;-1.50;99.90
67273;DHT22;54190;49.770;9.250;2023-03-04T02:44:01;-1.40;99.90
67273;DHT22;54190;49.770;9.250;2023-03-04T02:46:27;-1.40;99.90
67273;DHT22;54190;49.770;9.250;2023-03-04T02:48:52;-1.30;99.90
67273;DHT22;54190;49.770;9.250;2023-03-04T02:51:18;-1.20;99.90
67273;DHT22;54190;49.770;9.250;2023-03-04T02:53:44;-1.20;99.90
67273;DHT22;54190;49.770;9.250;2023-03-04T02:56:11;-1.20;99.90
67273;DHT22;54190;49.770;9.250;2023-03-04T02:58:37;-1.10;99.90
67273;DHT22;54190;49.770;9.250;2023-03-04T03:01:04;-1.00;99.90
67273;DHT22;54190;49.770;9.250;2023-03-04T03:03:30;-0.90;99.90
67273;DHT22;54190;49.770;9.250;2023-03-04T03:05:56;-0.90;99.90
67273;DHT22;54190;49.770;9.250;2023-03-04T03:08:22;-0.80;99.90
67273;DHT22;54190;49.770;9.250;2023-03-04T03:10:48;-0.80;99.90
67273;DHT22;54190;49.770;9.250;2023-03-04T03:13:15;-0.80;99.90
67273;DHT22;54190;49.770;9.250;2023-03-04T03:15:40;-0.80;99.90
67273;DHT22;54190;49.770;9.250;2023-03-04T03:18:11;-0.80;99.90
67273;DHT22;54190;49.770;9.250;2023-03-04T03:20:36;-0.70;99.90
67273;DHT22;54190;49.770;9.250;2023-03-04T03:23:02;-0.70;99.90
67273;DHT22;54190;49.770;9.250;2023-03-04T03:25:29;-0.70;99.90
67273;DHT22;54190;49.770;9.250;2023-03-04T03:27:54;-0.60;99.90
67273;DHT22;54190;49.770;9.250;2023-03-04T03:30:20;-0.50;99.90
67273;DHT22;54190;49.770;9.250;2023-03-04T03:32:46;-0.50;99.90
67273;DHT22;54190;49.770;9.250;2023-03-04T03:35:11;-0.50;99.90
67273;DHT22;54190;49.770;9.250;2023-03-04T03:37:38;-0.60;99.90
67273;DHT22;54190;49.770;9.250;2023-03-04T03:40:04;-0.50;99.90
67273;DHT22;54190;49.770;9.250;2023-03-04T03:42:30;-0.40;99.90
67273;DHT22;54190;49.770;9.250;2023-03-04T03:44:56;-0.40;99.90
67273;DHT22;54190;49.770;9.250;2023-03-04T03:47:21;-0.30;99.90
67273;DHT22;54190;49.770;9.250;2023-03-04T03:49:47;-0.30;99.90
67273;DHT22;54190;49.770;9.250;2023-03-04T03:52:13;-0.30;99.90
67273;DHT22;54190;49.770;9.250;2023-03-04T03:54:38;-0.30;99.90
67273;DHT22;54190;49.770;9.250;2023-03-04T03:57:04;-0.30;99.90
67273;DHT22;54190;49.770;9.250;2023-03-04T03:59:30;-0.30;99.90
67273;DHT22;54190;49.770;9.250;2023-03-04T04:01:55;-0.30;99.90
67273;DHT22;54190;49.770;9.250;2023-03-04T04:04:21;-0.30;99.90
67273;DHT22;54190;49.770;9.250;2023-03-04T04:06:47;-0.30;99.90
67273;DHT22;54190;49.770;9.250;2023-03-04T04:09:12;-0.30;99.90
67273;DHT22;54190;49.770;9.250;2023-03-04T04:11:38;-0.30;99.90
67273;DHT22;54190;49.770;9.250;2023-03-04T04:14:04;-0.20;99.90
67273;DHT22;54190;49.770;9.250;2023-03-04T04:16:29;-0.20;99.90
67273;DHT22;54190;49.770;9.250;2023-03-04T04:18:55;-0.10;99.90
67273;DHT22;54190;49.770;9.250;2023-03-04T04:21:21;-0.10;99.90
67273;DHT22;54190;49.770;9.250;2023-03-04T04:23:47;-0.20;99.90
67273;DHT22;54190;49.770;9.250;2023-03-04T04:26:12;-0.20;99.90
67273;DHT22;54190;49.770;9.250;2023-03-04T04:28:38;-0.30;99.90
67273;DHT22;54190;49.770;9.250;2023-03-04T04:31:07;-0.40;99.90
67273;DHT22;54190;49.770;9.250;2023-03-04T04:33:34;-0.30;99.90
67273;DHT22;54190;49.770;9.250;2023-03-04T04:36:00;-0.30;99.90
67273;DHT22;54190;49.770;9.250;2023-03-04T04:38:26;-0.30;99.90
67273;DHT22;54190;49.770;9.250;2023-03-04T04:40:52;-0.30;99.90
67273;DHT22;54190;49.770;9.250;2023-03-04T04:43:17;-0.30;99.90
67273;DHT22;54190;49.770;9.250;2023-03-04T04:45:43;-0.20;99.90
67273;DHT22;54190;49.770;9.250;2023-03-04T04:48:09;-0.30;99.90
67273;DHT22;54190;49.770;9.250;2023-03-04T04:50:34;-0.30;99.90
67273;DHT22;54190;49.770;9.250;2023-03-04T04:53:00;-0.30;99.90
67273;DHT22;54190;49.770;9.250;2023-03-04T04:55:26;-0.40;99.90
67273;DHT22;54190;49.770;9.250;2023-03-04T04:57:52;-0.40;99.90
67273;DHT22;54190;49.770;9.250;2023-03-04T05:00:18;-0.40;99.90
67273;DHT22;54190;49.770;9.250;2023-03-04T05:02:44;-0.30;99.90
67273;DHT22;54190;49.770;9.250;2023-03-04T05:05:09;-0.30;99.90
67273;DHT22;54190;49.770;9.250;2023-03-04T05:07:35;-0.20;99.90
67273;DHT22;54190;49.770;9.250;2023-03-04T05:10:01;-0.20;99.90
67273;DHT22;54190;49.770;9.250;2023-03-04T05:12:27;-0.10;99.90
67273;DHT22;54190;49.770;9.250;2023-03-04T05:14:53;-0.20;99.90
67273;DHT22;54190;49.770;9.250;2023-03-04T05:17:19;-0.20;99.90
67273;DHT22;54190;49.770;9.250;2023-03-04T05:19:44;-0.20;99.90
67273;DHT22;54190;49.770;9.250;2023-03-04T05:22:10;-0.10;99.90
67273;DHT22;54190;49.770;9.250;2023-03-04T05:24:35;-0.10;99.90
67273;DHT22;54190;49.770;9.250;2023-03-04T05:27:01;-0.10;99.90
67273;DHT22;54190;49.770;9.250;2023-03-04T05:29:27;-0.10;99.90
67273;DHT22;54190;49.770;9.250;2023-03-04T05:31:53;-0.10;99.90
67273;DHT22;54190;49.770;9.250;2023-03-04T05:34:19;-0.10;99.90
67273;DHT22;54190;49.770;9.250;2023-03-04T05:36:44;-0.10;99.90
67273;DHT22;54190;49.770;9.250;2023-03-04T05:39:10;-0.10;99.90
67273;DHT22;54190;49.770;9.250;2023-03-04T05:41:35;-0.10;99.90
67273;DHT22;54190;49.770;9.250;2023-03-04T05:44:01;-0.10;99.90
67273;DHT22;54190;49.770;9.250;2023-03-04T05:46:27;-0.10;99.90
67273;DHT22;54190;49.770;9.250;2023-03-04T05:48:53;-0.10;99.90
67273;DHT22;54190;49.770;9.250;2023-03-04T05:51:19;-0.10;99.90
67273;DHT22;54190;49.770;9.250;2023-03-04T05:53:45;0.00;99.90
67273;DHT22;54190;49.770;9.250;2023-03-04T05:56:16;0.00;99.90
67273;DHT22;54190;49.770;9.250;2023-03-04T05:58:43;0.00;99.90
67273;DHT22;54190;49.770;9.250;2023-03-04T06:01:09;0.00;99.90
67273;DHT22;54190;49.770;9.250;2023-03-04T06:03:36;-0.10;99.90
67273;DHT22;54190;49.770;9.250;2023-03-04T06:06:01;-0.10;99.90
67273;DHT22;54190;49.770;9.250;2023-03-04T06:08:27;-0.20;99.90
67273;DHT22;54190;49.770;9.250;2023-03-04T06:10:54;-0.30;99.90
67273;DHT22;54190;49.770;9.250;2023-03-04T06:13:21;-0.30;99.90
67273;DHT22;54190;49.770;9.250;2023-03-04T06:15:47;-0.40;99.90
67273;DHT22;54190;49.770;9.250;2023-03-04T06:18:17;-0.40;99.90
67273;DHT22;54190;49.770;9.250;2023-03-04T06:20:43;-0.40;99.90
67273;DHT22;54190;49.770;9.250;2023-03-04T06:23:09;-0.40;99.90
67273;DHT22;54190;49.770;9.250;2023-03-04T06:25:35;-0.30;99.90
67273;DHT22;54190;49.770;9.250;2023-03-04T06:28:01;-0.20;99.90
67273;DHT22;54190;49.770;9.250;2023-03-04T06:30:27;-0.20;99.90
67273;DHT22;54190;49.770;9.250;2023-03-04T06:32:53;-0.20;99.90
67273;DHT22;54190;49.770;9.250;2023-03-04T06:35:19;-0.10;99.90
67273;DHT22;54190;49.770;9.250;2023-03-04T06:37:44;-0.10;99.90
67273;DHT22;54190;49.770;9.250;2023-03-04T06:40:11;-0.10;99.90
67273;DHT22;54190;49.770;9.250;2023-03-04T06:42:37;-0.10;99.90
67273;DHT22;54190;49.770;9.250;2023-03-04T06:45:04;-0.10;99.90
67273;DHT22;54190;49.770;9.250;2023-03-04T06:47:30;0.00;99.90
67273;DHT22;54190;49.770;9.250;2023-03-04T06:49:56;0.00;99.90
67273;DHT22;54190;49.770;9.250;2023-03-04T06:52:21;0.10;99.90
67273;DHT22;54190;49.770;9.250;2023-03-04T06:54:47;0.10;99.90
67273;DHT22;54190;49.770;9.250;2023-03-04T06:57:13;0.10;99.90
67273;DHT22;54190;49.770;9.250;2023-03-04T06:59:39;0.00;99.90
67273;DHT22;54190;49.770;9.250;2023-03-04T07:02:05;0.00;99.90
67273;DHT22;54190;49.770;9.250;2023-03-04T07:04:31;0.10;99.90
67273;DHT22;54190;49.770;9.250;2023-03-04T07:06:57;0.10;99.90
67273;DHT22;54190;49.770;9.250;2023-03-04T07:09:22;0.00;99.90
67273;DHT22;54190;49.770;9.250;2023-03-04T07:11:48;0.00;99.90
67273;DHT22;54190;49.770;9.250;2023-03-04T07:14:14;0.00;99.90
67273;DHT22;54190;49.770;9.250;2023-03-04T07:16:40;0.10;99.90
67273;DHT22;54190;49.770;9.250;2023-03-04T07:19:05;0.20;99.90
67273;DHT22;54190;49.770;9.250;2023-03-04T07:21:31;0.20;99.90
67273;DHT22;54190;49.770;9.250;2023-03-04T07:23:56;0.10;99.90
67273;DHT22;54190;49.770;9.250;2023-03-04T07:26:22;0.10;99.90
67273;DHT22;54190;49.770;9.250;2023-03-04T07:28:48;0.10;99.90
67273;DHT22;54190;49.770;9.250;2023-03-04T07:31:24;0.10;99.90
67273;DHT22;54190;49.770;9.250;2023-03-04T07:33:56;0.20;99.90
67273;DHT22;54190;49.770;9.250;2023-03-04T07:36:22;0.30;99.90
67273;DHT22;54190;49.770;9.250;2023-03-04T07:38:49;0.40;99.90
67273;DHT22;54190;49.770;9.250;2023-03-04T07:41:16;0.40;99.90
67273;DHT22;54190;49.770;9.250;2023-03-04T07:43:43;0.50;99.90
67273;DHT22;54190;49.770;9.250;2023-03-04T07:46:09;0.50;99.90
67273;DHT22;54190;49.770;9.250;2023-03-04T07:48:35;0.60;99.90
67273;DHT22;54190;49.770;9.250;2023-03-04T07:51:22;0.60;99.90
67273;DHT22;54190;49.770;9.250;2023-03-04T07:53:51;0.70;99.90
67273;DHT22;54190;49.770;9.250;2023-03-04T07:56:23;0.70;99.90
67273;DHT22;54190;49.770;9.250;2023-03-04T07:58:50;0.70;99.90
67273;DHT22;54190;49.770;9.250;2023-03-04T08:01:32;0.80;99.90
67273;DHT22;54190;49.770;9.250;2023-03-04T08:03:58;0.80;99.90
67273;DHT22;54190;49.770;9.250;2023-03-04T08:06:24;0.90;99.90
67273;DHT22;54190;49.770;9.250;2023-03-04T08:09:05;0.90;99.90
67273;DHT22;54190;49.770;9.250;2023-03-04T08:11:31;0.90;99.90
67273;DHT22;54190;49.770;9.250;2023-03-04T08:13:57;0.90;99.90
67273;DHT22;54190;49.770;9.250;2023-03-04T08:16:23;0.90;99.90
67273;DHT22;54190;49.770;9.250;2023-03-04T08:18:54;1.00;99.90
67273;DHT22;54190;49.770;9.250;2023-03-04T08:21:22;1.00;99.90
67273;DHT22;54190;49.770;9.250;2023-03-04T08:23:48;1.00;99.90
67273;DHT22;54190;49.770;9.250;2023-03-04T08:26:18;1.00;99.90
67273;DHT22;54190;49.770;9.250;2023-03-04T08:28:44;1.10;99.90
67273;DHT22;54190;49.770;9.250;2023-03-04T08:31:12;1.10;99.90
67273;DHT22;54190;49.770;9.250;2023-03-04T08:33:37;1.10;99.90
67273;DHT22;54190;49.770;9.250;2023-03-04T08:36:03;1.20;99.90
67273;DHT22;54190;49.770;9.250;2023-03-04T08:38:29;1.20;99.90
67273;DHT22;54190;49.770;9.250;2023-03-04T08:40:56;1.30;99.90
67273;DHT22;54190;49.770;9.250;2023-03-04T08:43:23;1.30;99.90
67273;DHT22;54190;49.770;9.250;2023-03-04T08:45:50;1.40;99.90
67273;DHT22;54190;49.770;9.250;2023-03-04T08:48:17;1.40;99.90
67273;DHT22;54190;49.770;9.250;2023-03-04T08:50:44;1.50;99.90
67273;DHT22;54190;49.770;9.250;2023-03-04T08:53:10;1.50;99.90
67273;DHT22;54190;49.770;9.250;2023-03-04T08:55:37;1.50;99.90
67273;DHT22;54190;49.770;9.250;2023-03-04T08:58:04;1.30;99.90
67273;DHT22;54190;49.770;9.250;2023-03-04T09:00:30;1.30;99.90
67273;DHT22;54190;49.770;9.250;2023-03-04T09:02:55;1.40;99.90
67273;DHT22;54190;49.770;9.250;2023-03-04T09:05:21;1.40;99.90
67273;DHT22;54190;49.770;9.250;2023-03-04T09:07:47;1.40;99.90
67273;DHT22;54190;49.770;9.250;2023-03-04T09:10:13;1.30;99.90
67273;DHT22;54190;49.770;9.250;2023-03-04T09:12:38;1.20;99.90
67273;DHT22;54190;49.770;9.250;2023-03-04T09:15:05;1.30;99.90
67273;DHT22;54190;49.770;9.250;2023-03-04T09:17:31;1.30;99.90
67273;DHT22;54190;49.770;9.250;2023-03-04T09:19:57;1.40;99.90
67273;DHT22;54190;49.770;9.250;2023-03-04T09:22:23;1.40;99.90
67273;DHT22;54190;49.770;9.250;2023-03-04T09:24:48;1.30;99.90
67273;DHT22;54190;49.770;9.250;2023-03-04T09:27:14;1.30;99.90
67273;DHT22;54190;49.770;9.250;2023-03-04T09:29:40;1.20;99.90
67273;DHT22;54190;49.770;9.250;2023-03-04T09:32:06;1.30;99.90
67273;DHT22;54190;49.770;9.250;2023-03-04T09:34:32;1.30;99.90
67273;DHT22;54190;49.770;9.250;2023-03-04T09:36:58;1.40;99.90
67273;DHT22;54190;49.770;9.250;2023-03-04T09:39:23;1.50;99.90
67273;DHT22;54190;49.770;9.250;2023-03-04T09:41:51;1.60;99.90
67273;DHT22;54190;49.770;9.250;2023-03-04T09:44:27;1.70;99.90
67273;DHT22;54190;49.770;9.250;2023-03-04T09:47:00;1.80;99.90
67273;DHT22;54190;49.770;9.250;2023-03-04T09:49:27;1.90;99.90
67273;DHT22;54190;49.770;9.250;2023-03-04T09:54:55;2.00;99.90
67273;DHT22;54190;49.770;9.250;2023-03-04T10:06:06;2.10;99.90
67273;DHT22;54190;49.770;9.250;2023-03-04T10:09:03;2.20;99.90
67273;DHT22;54190;49.770;9.250;2023-03-04T10:11:31;2.20;99.90
67273;DHT22;54190;49.770;9.250;2023-03-04T10:14:45;2.30;99.90
67273;DHT22;54190;49.770;9.250;2023-03-04T10:19:36;2.50;99.90
67273;DHT22;54190;49.770;9.250;2023-03-04T10:24:45;2.70;99.90
67273;DHT22;54190;49.770;9.250;2023-03-04T10:27:16;2.70;99.90
67273;DHT22;54190;49.770;9.250;2023-03-04T10:29:43;2.80;99.90
67273;DHT22;54190;49.770;9.250;2023-03-04T10:32:15;2.80;99.90
67273;DHT22;54190;49.770;9.250;2023-03-04T10:34:42;2.90;99.90
67273;DHT22;54190;49.770;9.250;2023-03-04T10:37:07;3.00;99.90
67273;DHT22;54190;49.770;9.250;2023-03-04T10:39:42;3.00;99.90
67273;DHT22;54190;49.770;9.250;2023-03-04T10:44:53;3.10;99.90
67273;DHT22;54190;49.770;9.250;2023-03-04T10:47:23;3.10;99.90
67273;DHT22;54190;49.770;9.250;2023-03-04T10:50:00;3.10;99.90
67273;DHT22;54190;49.770;9.250;2023-03-04T10:55:01;3.20;99.90
67273;DHT22;54190;49.770;9.250;2023-03-04T10:57:51;3.10;99.90
67273;DHT22;54190;49.770;9.250;2023-03-04T11:00:35;3.20;99.90
67273;DHT22;54190;49.770;9.250;2023-03-04T11:03:24;3.20;99.90
67273;DHT22;54190;49.770;9.250;2023-03-04T11:06:20;3.20;99.90
67273;DHT22;54190;49.770;9.250;2023-03-04T11:08:57;3.20;99.90
67273;DHT22;54190;49.770;9.250;2023-03-04T11:11:29;3.30;99.90
67273;DHT22;54190;49.770;9.250;2023-03-04T11:14:01;3.30;99.90
67273;DHT22;54190;49.770;9.250;2023-03-04T11:16:31;3.40;99.90
67273;DHT22;54190;49.770;9.250;2023-03-04T11:19:09;3.40;99.90
67273;DHT22;54190;49.770;9.250;2023-03-04T11:21:38;3.40;99.90
67273;DHT22;54190;49.770;9.250;2023-03-04T11:24:20;3.50;99.90
67273;DHT22;54190;49.770;9.250;2023-03-04T11:27:05;3.50;99.90
67273;DHT22;54190;49.770;9.250;2023-03-04T11:29:59;3.60;99.90
67273;DHT22;54190;49.770;9.250;2023-03-04T11:32:33;3.60;99.90
67273;DHT22;54190;49.770;9.250;2023-03-04T11:35:24;3.50;99.90
67273;DHT22;54190;49.770;9.250;2023-03-04T11:38:04;3.50;99.90
67273;DHT22;54190;49.770;9.250;2023-03-04T11:45:48;3.40;99.90
67273;DHT22;54190;49.770;9.250;2023-03-04T11:51:22;3.40;99.90
67273;DHT22;54190;49.770;9.250;2023-03-04T11:56:59;3.40;99.90
67273;DHT22;54190;49.770;9.250;2023-03-04T12:02:13;3.50;99.90
67273;DHT22;54190;49.770;9.250;2023-03-04T12:04:47;3.50;99.90
67273;DHT22;54190;49.770;9.250;2023-03-04T12:12:51;3.60;99.90
67273;DHT22;54190;49.770;9.250;2023-03-04T12:15:26;3.70;99.90
67273;DHT22;54190;49.770;9.250;2023-03-04T12:21:06;3.70;99.90
67273;DHT22;54190;49.770;9.250;2023-03-04T12:23:53;3.80;99.90
67273;DHT22;54190;49.770;9.250;2023-03-04T12:26:46;3.80;99.90
67273;DHT22;54190;49.770;9.250;2023-03-04T12:29:38;3.80;99.90
67273;DHT22;54190;49.770;9.250;2023-03-04T12:32:29;3.80;99.90
67273;DHT22;54190;49.770;9.250;2023-03-04T12:35:11;3.80;99.90
67273;DHT22;54190;49.770;9.250;2023-03-04T12:38:00;3.90;99.90
67273;DHT22;54190;49.770;9.250;2023-03-04T12:46:20;3.90;99.90
67273;DHT22;54190;49.770;9.250;2023-03-04T12:51:31;3.90;99.90
67273;DHT22;54190;49.770;9.250;2023-03-04T12:56:55;4.00;99.90
67273;DHT22;54190;49.770;9.250;2023-03-04T12:59:24;4.10;99.90
67273;DHT22;54190;49.770;9.250;2023-03-04T13:02:08;4.10;99.90
67273;DHT22;54190;49.770;9.250;2023-03-04T13:08:06;4.10;99.90
67273;DHT22;54190;49.770;9.250;2023-03-04T13:10:32;4.10;99.90
67273;DHT22;54190;49.770;9.250;2023-03-04T13:12:59;4.10;99.90
67273;DHT22;54190;49.770;9.250;2023-03-04T13:17:56;4.10;99.90
67273;DHT22;54190;49.770;9.250;2023-03-04T13:20:41;4.10;99.90
67273;DHT22;54190;49.770;9.250;2023-03-04T13:35:47;4.20;99.90
67273;DHT22;54190;49.770;9.250;2023-03-04T13:43:55;4.30;99.90
67273;DHT22;54190;49.770;9.250;2023-03-04T14:01:35;4.50;99.90
67273;DHT22;54190;49.770;9.250;2023-03-04T14:04:31;4.50;99.90
67273;DHT22;54190;49.770;9.250;2023-03-04T14:06:57;4.50;99.90
67273;DHT22;54190;49.770;9.250;2023-03-04T14:09:26;4.60;99.90
67273;DHT22;54190;49.770;9.250;2023-03-04T14:11:54;4.70;99.90
67273;DHT22;54190;49.770;9.250;2023-03-04T14:14:32;4.70;99.90
67273;DHT22;54190;49.770;9.250;2023-03-04T14:17:05;4.70;99.90
67273;DHT22;54190;49.770;9.250;2023-03-04T14:19:31;4.70;99.90
67273;DHT22;54190;49.770;9.250;2023-03-04T14:22:01;4.70;99.90
67273;DHT22;54190;49.770;9.250;2023-03-04T14:24:26;4.80;99.90
67273;DHT22;54190;49.770;9.250;2023-03-04T14:27:12;4.80;99.90
67273;DHT22;54190;49.770;9.250;2023-03-04T14:29:38;4.70;99.90
67273;DHT22;54190;49.770;9.250;2023-03-04T14:32:05;4.70;99.90
67273;DHT22;54190;49.770;9.250;2023-03-04T14:34:33;4.80;99.90
67273;DHT22;54190;49.770;9.250;2023-03-04T14:37:00;4.80;99.90
67273;DHT22;54190;49.770;9.250;2023-03-04T14:39:32;4.80;99.90
67273;DHT22;54190;49.770;9.250;2023-03-04T14:42:09;4.70;99.90
67273;DHT22;54190;49.770;9.250;2023-03-04T14:44:41;4.70;99.90
67273;DHT22;54190;49.770;9.250;2023-03-04T14:49:45;4.80;99.90
67273;DHT22;54190;49.770;9.250;2023-03-04T14:52:35;4.80;99.90
67273;DHT22;54190;49.770;9.250;2023-03-04T14:57:40;4.80;99.90
67273;DHT22;54190;49.770;9.250;2023-03-04T15:02:52;4.70;99.90
67273;DHT22;54190;49.770;9.250;2023-03-04T15:05:24;4.70;99.90
67273;DHT22;54190;49.770;9.250;2023-03-04T15:08:05;4.60;99.90
67273;DHT22;54190;49.770;9.250;2023-03-04T15:10:36;4.60;99.90
67273;DHT22;54190;49.770;9.250;2023-03-04T15:13:06;4.60;99.90
67273;DHT22;54190;49.770;9.250;2023-03-04T15:15:41;4.60;99.90
67273;DHT22;54190;49.770;9.250;2023-03-04T15:20:55;4.50;99.90
67273;DHT22;54190;49.770;9.250;2023-03-04T15:23:21;4.50;99.90
67273;DHT22;54190;49.770;9.250;2023-03-04T15:25:53;4.50;99.90
67273;DHT22;54190;49.770;9.250;2023-03-04T15:28:20;4.50;99.90
67273;DHT22;54190;49.770;9.250;2023-03-04T15:30:46;4.40;99.90
67273;DHT22;54190;49.770;9.250;2023-03-04T15:33:12;4.40;99.90
67273;DHT22;54190;49.770;9.250;2023-03-04T15:35:38;4.50;99.90
67273;DHT22;54190;49.770;9.250;2023-03-04T15:38:06;4.50;99.90
67273;DHT22;54190;49.770;9.250;2023-03-04T15:40:36;4.50;99.90
67273;DHT22;54190;49.770;9.250;2023-03-04T15:43:04;4.50;99.90
67273;DHT22;54190;49.770;9.250;2023-03-04T15:45:32;4.50;99.90
67273;DHT22;54190;49.770;9.250;2023-03-04T15:48:01;4.50;99.90
67273;DHT22;54190;49.770;9.250;2023-03-04T15:50:33;4.40;99.90
67273;DHT22;54190;49.770;9.250;2023-03-04T15:53:01;4.40;99.90
67273;DHT22;54190;49.770;9.250;2023-03-04T15:55:28;4.40;99.90
67273;DHT22;54190;49.770;9.250;2023-03-04T15:57:56;4.40;99.90
67273;DHT22;54190;49.770;9.250;2023-03-04T16:00:22;4.40;99.90
67273;DHT22;54190;49.770;9.250;2023-03-04T16:02:48;4.40;99.90
67273;DHT22;54190;49.770;9.250;2023-03-04T16:05:14;4.30;99.90
67273;DHT22;54190;49.770;9.250;2023-03-04T16:07:42;4.30;99.90
67273;DHT22;54190;49.770;9.250;2023-03-04T16:10:26;4.40;99.90
67273;DHT22;54190;49.770;9.250;2023-03-04T16:12:53;4.40;99.90
67273;DHT22;54190;49.770;9.250;2023-03-04T16:15:24;4.40;99.90
67273;DHT22;54190;49.770;9.250;2023-03-04T16:17:50;4.40;99.90
67273;DHT22;54190;49.770;9.250;2023-03-04T16:20:22;4.40;99.90
67273;DHT22;54190;49.770;9.250;2023-03-04T16:22:51;4.50;99.90
67273;DHT22;54190;49.770;9.250;2023-03-04T16:25:19;4.50;99.90
67273;DHT22;54190;49.770;9.250;2023-03-04T16:27:45;4.40;99.90
67273;DHT22;54190;49.770;9.250;2023-03-04T16:30:20;4.40;99.90
67273;DHT22;54190;49.770;9.250;2023-03-04T16:32:46;4.40;99.90
67273;DHT22;54190;49.770;9.250;2023-03-04T16:35:13;4.40;99.90
67273;DHT22;54190;49.770;9.250;2023-03-04T16:37:39;4.40;99.90
67273;DHT22;54190;49.770;9.250;2023-03-04T16:40:05;4.40;99.90
67273;DHT22;54190;49.770;9.250;2023-03-04T16:42:31;4.40;99.90
67273;DHT22;54190;49.770;9.250;2023-03-04T16:44:57;4.40;99.90
67273;DHT22;54190;49.770;9.250;2023-03-04T16:47:23;4.40;99.90
67273;DHT22;54190;49.770;9.250;2023-03-04T16:49:48;4.40;99.90
67273;DHT22;54190;49.770;9.250;2023-03-04T16:52:34;4.30;99.90
67273;DHT22;54190;49.770;9.250;2023-03-04T16:55:00;4.30;99.90
67273;DHT22;54190;49.770;9.250;2023-03-04T16:57:26;4.30;99.90
67273;DHT22;54190;49.770;9.250;2023-03-04T16:59:56;4.30;99.90
67273;DHT22;54190;49.770;9.250;2023-03-04T17:02:22;4.30;99.90
67273;DHT22;54190;49.770;9.250;2023-03-04T17:04:51;4.30;99.90
67273;DHT22;54190;49.770;9.250;2023-03-04T17:07:16;4.30;99.90
67273;DHT22;54190;49.770;9.250;2023-03-04T17:09:42;4.30;99.90
67273;DHT22;54190;49.770;9.250;2023-03-04T17:12:10;4.30;99.90
67273;DHT22;54190;49.770;9.250;2023-03-04T17:14:36;4.40;99.90
67273;DHT22;54190;49.770;9.250;2023-03-04T17:17:03;4.40;99.90
67273;DHT22;54190;49.770;9.250;2023-03-04T17:19:29;4.40;99.90
67273;DHT22;54190;49.770;9.250;2023-03-04T17:21:56;4.40;99.90
67273;DHT22;54190;49.770;9.250;2023-03-04T17:24:22;4.40;99.90
67273;DHT22;54190;49.770;9.250;2023-03-04T17:26:48;4.40;99.90
67273;DHT22;54190;49.770;9.250;2023-03-04T17:29:14;4.40;99.90
67273;DHT22;54190;49.770;9.250;2023-03-04T17:31:40;4.30;99.90
67273;DHT22;54190;49.770;9.250;2023-03-04T17:34:06;4.30;99.90
67273;DHT22;54190;49.770;9.250;2023-03-04T17:36:31;4.30;99.90
67273;DHT22;54190;49.770;9.250;2023-03-04T17:38:59;4.30;99.90